Dayton, Maryland
Current Conditions -  °F | °C
As of 9:55 AM on Friday 19 Dec 2014 (Local Time) from KGAI Reporting Station
Overcast Overcast  
Wind Chill: 25°   Ceiling: 2800
Heat Index: 34°   Visibility: 10mi
Dew Point: 21°   Wind: 13mph
Humidity: 60%   Direction: 300°WNW
Pressure: 30.19"   Gusts: 16mph
Location:  39.24°N, 76.99°W
Report Text: KGAI 191455Z 30011G14KT 10SM OVC028 01/M06 A3019 RMK AO1 52014
Loading
Personal Weather Stations






























Interactive Weather Map New forecast layout! Learn more

10-Day Weather Forecast

Advertisements
Track Severe Weather on mobile